sensor_id;sensor_type;location;lat;lon;timestamp;pressure;altitude;pressure_sealevel;temperature;humidity
42125;BME280;27787;44.594;11.046;2022-12-18T00:02:24;102208.13;;;8.11;83.80
42125;BME280;27787;44.594;11.046;2022-12-18T00:05:08;102215.34;;;8.16;83.54
42125;BME280;27787;44.594;11.046;2022-12-18T00:07:52;102209.31;;;8.19;83.63
42125;BME280;27787;44.594;11.046;2022-12-18T00:10:36;102214.78;;;8.23;84.03
42125;BME280;27787;44.594;11.046;2022-12-18T00:13:20;102218.41;;;8.27;83.64
42125;BME280;27787;44.594;11.046;2022-12-18T00:16:18;102227.16;;;8.26;84.10
42125;BME280;27787;44.594;11.046;2022-12-18T00:19:04;102237.78;;;8.29;83.68
42125;BME280;27787;44.594;11.046;2022-12-18T00:21:48;102251.88;;;8.31;82.16
42125;BME280;27787;44.594;11.046;2022-12-18T00:24:33;102249.13;;;8.28;82.48
42125;BME280;27787;44.594;11.046;2022-12-18T00:27:16;102260.44;;;8.25;82.72
42125;BME280;27787;44.594;11.046;2022-12-18T00:30:01;102268.91;;;8.18;82.67
42125;BME280;27787;44.594;11.046;2022-12-18T00:32:45;102264.31;;;8.13;83.03
42125;BME280;27787;44.594;11.046;2022-12-18T00:35:31;102262.19;;;8.04;83.36
42125;BME280;27787;44.594;11.046;2022-12-18T00:38:15;102265.47;;;7.98;83.89
42125;BME280;27787;44.594;11.046;2022-12-18T00:41:02;102263.59;;;7.96;84.42
42125;BME280;27787;44.594;11.046;2022-12-18T00:43:46;102263.44;;;7.93;84.06
42125;BME280;27787;44.594;11.046;2022-12-18T00:46:31;102266.19;;;7.94;84.08
42125;BME280;27787;44.594;11.046;2022-12-18T00:49:18;102275.03;;;7.96;84.09
42125;BME280;27787;44.594;11.046;2022-12-18T00:52:02;102278.50;;;7.95;84.08
42125;BME280;27787;44.594;11.046;2022-12-18T00:54:47;102279.22;;;7.93;83.94
42125;BME280;27787;44.594;11.046;2022-12-18T00:57:31;102272.13;;;7.90;84.48
42125;BME280;27787;44.594;11.046;2022-12-18T01:00:15;102280.66;;;7.85;84.47
42125;BME280;27787;44.594;11.046;2022-12-18T01:02:59;102284.13;;;7.84;85.20
42125;BME280;27787;44.594;11.046;2022-12-18T01:05:44;102278.81;;;7.82;85.26
42125;BME280;27787;44.594;11.046;2022-12-18T01:08:29;102277.06;;;7.83;83.41
42125;BME280;27787;44.594;11.046;2022-12-18T01:11:16;102265.66;;;7.82;82.54
42125;BME280;27787;44.594;11.046;2022-12-18T01:14:02;102269.31;;;7.86;82.43
42125;BME280;27787;44.594;11.046;2022-12-18T01:16:46;102274.81;;;7.92;81.53
42125;BME280;27787;44.594;11.046;2022-12-18T01:19:31;102275.41;;;7.85;81.04
42125;BME280;27787;44.594;11.046;2022-12-18T01:22:16;102275.00;;;7.76;80.93
42125;BME280;27787;44.594;11.046;2022-12-18T01:25:03;102285.63;;;7.79;81.02
42125;BME280;27787;44.594;11.046;2022-12-18T01:27:48;102279.47;;;7.78;81.93
42125;BME280;27787;44.594;11.046;2022-12-18T01:30:33;102283.66;;;7.73;83.22
42125;BME280;27787;44.594;11.046;2022-12-18T01:33:17;102292.25;;;7.69;83.05
42125;BME280;27787;44.594;11.046;2022-12-18T01:36:01;102288.50;;;7.64;83.11
42125;BME280;27787;44.594;11.046;2022-12-18T01:38:47;102287.41;;;7.59;82.67
42125;BME280;27787;44.594;11.046;2022-12-18T01:41:32;102290.66;;;7.53;82.82
42125;BME280;27787;44.594;11.046;2022-12-18T01:44:55;102300.84;;;7.46;82.75
42125;BME280;27787;44.594;11.046;2022-12-18T01:50:41;102310.03;;;7.36;83.35
42125;BME280;27787;44.594;11.046;2022-12-18T01:53:28;102312.47;;;7.31;82.83
42125;BME280;27787;44.594;11.046;2022-12-18T01:56:14;102307.88;;;7.27;82.50
42125;BME280;27787;44.594;11.046;2022-12-18T01:59:04;102310.38;;;7.24;82.64
42125;BME280;27787;44.594;11.046;2022-12-18T02:01:50;102321.69;;;7.23;82.92
42125;BME280;27787;44.594;11.046;2022-12-18T02:04:35;102326.81;;;7.20;82.91
42125;BME280;27787;44.594;11.046;2022-12-18T02:08:01;102329.31;;;7.17;83.05
42125;BME280;27787;44.594;11.046;2022-12-18T02:10:59;102329.16;;;7.14;83.18
42125;BME280;27787;44.594;11.046;2022-12-18T02:14:18;102340.41;;;7.12;83.08
42125;BME280;27787;44.594;11.046;2022-12-18T02:17:12;102334.25;;;7.11;82.88
42125;BME280;27787;44.594;11.046;2022-12-18T02:23:13;102347.19;;;7.06;84.04
42125;BME280;27787;44.594;11.046;2022-12-18T02:29:15;102349.69;;;7.03;84.97
42125;BME280;27787;44.594;11.046;2022-12-18T02:32:02;102361.22;;;7.07;84.84
42125;BME280;27787;44.594;11.046;2022-12-18T02:34:50;102363.22;;;7.13;84.17
42125;BME280;27787;44.594;11.046;2022-12-18T02:37:38;102366.81;;;7.15;82.33
42125;BME280;27787;44.594;11.046;2022-12-18T02:40:26;102366.06;;;7.17;82.62
42125;BME280;27787;44.594;11.046;2022-12-18T02:43:14;102378.38;;;7.18;82.02
42125;BME280;27787;44.594;11.046;2022-12-18T02:46:00;102385.44;;;7.19;82.95
42125;BME280;27787;44.594;11.046;2022-12-18T02:49:36;102387.91;;;7.16;83.40
42125;BME280;27787;44.594;11.046;2022-12-18T03:08:07;102403.81;;;7.01;87.29
42125;BME280;27787;44.594;11.046;2022-12-18T03:11:04;102404.34;;;6.94;86.90
42125;BME280;27787;44.594;11.046;2022-12-18T03:13:55;102399.88;;;6.92;87.55
42125;BME280;27787;44.594;11.046;2022-12-18T03:16:42;102403.31;;;6.91;87.60
42125;BME280;27787;44.594;11.046;2022-12-18T03:19:32;102399.69;;;6.89;88.03
42125;BME280;27787;44.594;11.046;2022-12-18T03:22:17;102391.09;;;6.91;88.24
42125;BME280;27787;44.594;11.046;2022-12-18T03:25:09;102400.28;;;7.01;88.15
42125;BME280;27787;44.594;11.046;2022-12-18T03:27:56;102396.19;;;7.06;87.80
42125;BME280;27787;44.594;11.046;2022-12-18T03:30:44;102408.53;;;7.08;87.51
42125;BME280;27787;44.594;11.046;2022-12-18T03:33:42;102402.41;;;7.08;87.51
42125;BME280;27787;44.594;11.046;2022-12-18T03:36:31;102411.09;;;7.07;87.25
42125;BME280;27787;44.594;11.046;2022-12-18T03:39:15;102400.66;;;7.08;86.83
42125;BME280;27787;44.594;11.046;2022-12-18T03:42:15;102408.47;;;7.07;87.01
42125;BME280;27787;44.594;11.046;2022-12-18T03:48:16;102411.84;;;7.04;87.42
42125;BME280;27787;44.594;11.046;2022-12-18T03:51:10;102414.47;;;7.04;87.29
42125;BME280;27787;44.594;11.046;2022-12-18T03:53:59;102420.72;;;7.06;86.73
42125;BME280;27787;44.594;11.046;2022-12-18T03:57:02;102421.47;;;7.04;85.78
42125;BME280;27787;44.594;11.046;2022-12-18T03:59:50;102421.34;;;7.02;86.14
42125;BME280;27787;44.594;11.046;2022-12-18T04:02:43;102421.34;;;7.02;86.81
42125;BME280;27787;44.594;11.046;2022-12-18T04:05:32;102417.84;;;7.02;87.53
42125;BME280;27787;44.594;11.046;2022-12-18T04:08:18;102417.19;;;7.06;88.06
42125;BME280;27787;44.594;11.046;2022-12-18T04:11:11;102418.28;;;7.11;88.94
42125;BME280;27787;44.594;11.046;2022-12-18T04:13:57;102426.38;;;7.16;89.08
42125;BME280;27787;44.594;11.046;2022-12-18T04:16:41;102431.56;;;7.14;88.94
42125;BME280;27787;44.594;11.046;2022-12-18T04:19:29;102436.66;;;7.11;89.52
42125;BME280;27787;44.594;11.046;2022-12-18T04:22:13;102445.16;;;7.05;89.08
42125;BME280;27787;44.594;11.046;2022-12-18T04:25:01;102447.53;;;7.01;89.51
42125;BME280;27787;44.594;11.046;2022-12-18T04:27:53;102456.94;;;6.96;89.40
42125;BME280;27787;44.594;11.046;2022-12-18T04:30:38;102462.88;;;6.92;89.21
42125;BME280;27787;44.594;11.046;2022-12-18T04:33:23;102471.38;;;6.88;88.94
42125;BME280;27787;44.594;11.046;2022-12-18T04:36:07;102480.78;;;6.83;88.28
42125;BME280;27787;44.594;11.046;2022-12-18T04:38:52;102480.69;;;6.81;88.82
42125;BME280;27787;44.594;11.046;2022-12-18T04:41:37;102482.28;;;6.77;87.75
42125;BME280;27787;44.594;11.046;2022-12-18T04:44:22;102487.34;;;6.74;87.66
42125;BME280;27787;44.594;11.046;2022-12-18T04:47:06;102498.81;;;6.76;87.28
42125;BME280;27787;44.594;11.046;2022-12-18T04:49:51;102499.91;;;6.80;87.58
42125;BME280;27787;44.594;11.046;2022-12-18T04:52:35;102502.88;;;6.88;88.04
42125;BME280;27787;44.594;11.046;2022-12-18T04:55:19;102499.63;;;6.92;88.38
42125;BME280;27787;44.594;11.046;2022-12-18T04:58:05;102504.13;;;6.94;88.21
42125;BME280;27787;44.594;11.046;2022-12-18T05:00:49;102499.53;;;6.90;88.16
42125;BME280;27787;44.594;11.046;2022-12-18T05:03:34;102515.19;;;6.89;88.59
42125;BME280;27787;44.594;11.046;2022-12-18T05:06:18;102521.25;;;6.88;88.91
42125;BME280;27787;44.594;11.046;2022-12-18T05:09:02;102516.91;;;6.88;88.09
42125;BME280;27787;44.594;11.046;2022-12-18T05:11:46;102514.97;;;6.84;87.16
42125;BME280;27787;44.594;11.046;2022-12-18T05:14:31;102522.16;;;6.88;87.84
42125;BME280;27787;44.594;11.046;2022-12-18T05:17:15;102516.41;;;6.95;86.57
42125;BME280;27787;44.594;11.046;2022-12-18T05:19:59;102520.91;;;6.98;85.60
42125;BME280;27787;44.594;11.046;2022-12-18T05:22:44;102529.84;;;7.01;85.33
42125;BME280;27787;44.594;11.046;2022-12-18T05:25:28;102542.38;;;7.07;85.19
42125;BME280;27787;44.594;11.046;2022-12-18T05:28:13;102539.91;;;7.10;84.61
42125;BME280;27787;44.594;11.046;2022-12-18T05:30:59;102550.41;;;7.10;84.25
42125;BME280;27787;44.594;11.046;2022-12-18T05:33:44;102553.19;;;7.13;84.41
42125;BME280;27787;44.594;11.046;2022-12-18T05:36:27;102552.81;;;7.23;84.66
42125;BME280;27787;44.594;11.046;2022-12-18T05:39:12;102549.97;;;7.36;84.04
42125;BME280;27787;44.594;11.046;2022-12-18T05:41:56;102559.16;;;7.45;83.56
42125;BME280;27787;44.594;11.046;2022-12-18T05:44:40;102564.41;;;7.45;83.53
42125;BME280;27787;44.594;11.046;2022-12-18T05:47:26;102565.06;;;7.40;84.47
42125;BME280;27787;44.594;11.046;2022-12-18T05:50:10;102562.28;;;7.37;85.55
42125;BME280;27787;44.594;11.046;2022-12-18T05:52:55;102568.44;;;7.38;86.35
42125;BME280;27787;44.594;11.046;2022-12-18T05:55:40;102564.63;;;7.31;87.02
42125;BME280;27787;44.594;11.046;2022-12-18T05:58:25;102577.50;;;7.27;87.95
42125;BME280;27787;44.594;11.046;2022-12-18T06:01:12;102579.63;;;7.34;88.28
42125;BME280;27787;44.594;11.046;2022-12-18T06:03:57;102577.47;;;7.43;88.21
42125;BME280;27787;44.594;11.046;2022-12-18T06:06:41;102582.03;;;7.47;86.89
42125;BME280;27787;44.594;11.046;2022-12-18T06:09:25;102577.53;;;7.45;86.05
42125;BME280;27787;44.594;11.046;2022-12-18T06:12:09;102577.53;;;7.45;86.15
42125;BME280;27787;44.594;11.046;2022-12-18T06:14:54;102582.47;;;7.38;86.87
42125;BME280;27787;44.594;11.046;2022-12-18T06:17:39;102586.69;;;7.35;87.28
42125;BME280;27787;44.594;11.046;2022-12-18T06:20:23;102593.59;;;7.33;88.29
42125;BME280;27787;44.594;11.046;2022-12-18T06:23:07;102588.91;;;7.27;87.02
42125;BME280;27787;44.594;11.046;2022-12-18T06:25:53;102599.13;;;7.21;86.98
42125;BME280;27787;44.594;11.046;2022-12-18T06:28:38;102604.50;;;7.06;85.03
42125;BME280;27787;44.594;11.046;2022-12-18T06:31:22;102615.34;;;6.96;85.71
42125;BME280;27787;44.594;11.046;2022-12-18T06:34:07;102620.19;;;6.89;86.94
42125;BME280;27787;44.594;11.046;2022-12-18T06:36:51;102623.41;;;6.83;87.20
42125;BME280;27787;44.594;11.046;2022-12-18T06:39:36;102627.84;;;6.84;87.65
42125;BME280;27787;44.594;11.046;2022-12-18T06:42:19;102635.94;;;6.89;87.08
42125;BME280;27787;44.594;11.046;2022-12-18T06:45:04;102636.06;;;6.90;86.71
42125;BME280;27787;44.594;11.046;2022-12-18T06:47:48;102646.38;;;6.87;85.86
42125;BME280;27787;44.594;11.046;2022-12-18T06:50:32;102646.44;;;6.89;86.15
42125;BME280;27787;44.594;11.046;2022-12-18T06:53:17;102649.16;;;6.90;85.81
42125;BME280;27787;44.594;11.046;2022-12-18T06:56:04;102646.97;;;6.82;83.80
42125;BME280;27787;44.594;11.046;2022-12-18T06:58:48;102652.53;;;6.71;83.89
42125;BME280;27787;44.594;11.046;2022-12-18T07:01:32;102659.97;;;6.64;83.25
42125;BME280;27787;44.594;11.046;2022-12-18T07:04:17;102658.03;;;6.60;83.52
42125;BME280;27787;44.594;11.046;2022-12-18T07:07:01;102676.97;;;6.54;83.42
42125;BME280;27787;44.594;11.046;2022-12-18T07:09:45;102677.78;;;6.53;82.62
42125;BME280;27787;44.594;11.046;2022-12-18T07:12:29;102677.78;;;6.53;82.88
42125;BME280;27787;44.594;11.046;2022-12-18T07:15:13;102683.59;;;6.47;82.40
42125;BME280;27787;44.594;11.046;2022-12-18T07:17:57;102687.03;;;6.46;81.32
42125;BME280;27787;44.594;11.046;2022-12-18T07:20:41;102694.75;;;6.43;80.59
42125;BME280;27787;44.594;11.046;2022-12-18T07:23:25;102696.31;;;6.40;80.73
42125;BME280;27787;44.594;11.046;2022-12-18T07:26:12;102698.84;;;6.38;81.63
42125;BME280;27787;44.594;11.046;2022-12-18T07:28:57;102703.34;;;6.41;81.43
42125;BME280;27787;44.594;11.046;2022-12-18T07:31:41;102697.28;;;6.42;79.69
42125;BME280;27787;44.594;11.046;2022-12-18T07:34:26;102687.63;;;6.41;80.11
42125;BME280;27787;44.594;11.046;2022-12-18T07:37:10;102696.69;;;6.47;80.72
42125;BME280;27787;44.594;11.046;2022-12-18T07:39:54;102702.22;;;6.52;79.81
42125;BME280;27787;44.594;11.046;2022-12-18T07:42:39;102701.31;;;6.52;79.27
42125;BME280;27787;44.594;11.046;2022-12-18T07:45:23;102705.66;;;6.51;78.94
42125;BME280;27787;44.594;11.046;2022-12-18T07:48:08;102705.00;;;6.55;78.73
42125;BME280;27787;44.594;11.046;2022-12-18T07:50:52;102711.97;;;6.55;78.31
42125;BME280;27787;44.594;11.046;2022-12-18T07:53:36;102711.06;;;6.54;79.09
42125;BME280;27787;44.594;11.046;2022-12-18T07:56:21;102723.03;;;6.49;79.73
42125;BME280;27787;44.594;11.046;2022-12-18T07:59:06;102713.25;;;6.46;79.16
42125;BME280;27787;44.594;11.046;2022-12-18T08:01:50;102721.13;;;6.46;79.38
42125;BME280;27787;44.594;11.046;2022-12-18T08:04:35;102726.47;;;6.48;79.91
42125;BME280;27787;44.594;11.046;2022-12-18T08:07:19;102725.66;;;6.49;80.00
42125;BME280;27787;44.594;11.046;2022-12-18T08:10:04;102718.50;;;6.46;80.34
42125;BME280;27787;44.594;11.046;2022-12-18T08:12:51;102730.88;;;6.49;79.31
42125;BME280;27787;44.594;11.046;2022-12-18T08:15:35;102728.47;;;6.52;79.52
42125;BME280;27787;44.594;11.046;2022-12-18T08:18:20;102743.78;;;6.61;79.81
42125;BME280;27787;44.594;11.046;2022-12-18T08:21:09;102752.00;;;6.67;78.90
42125;BME280;27787;44.594;11.046;2022-12-18T08:23:55;102758.41;;;6.72;78.24
42125;BME280;27787;44.594;11.046;2022-12-18T08:26:39;102753.41;;;6.76;77.67
42125;BME280;27787;44.594;11.046;2022-12-18T08:29:23;102763.19;;;6.79;77.38
42125;BME280;27787;44.594;11.046;2022-12-18T08:32:08;102773.25;;;6.88;75.73
42125;BME280;27787;44.594;11.046;2022-12-18T08:34:52;102778.19;;;6.82;76.18
42125;BME280;27787;44.594;11.046;2022-12-18T08:37:37;102780.00;;;6.83;76.43
42125;BME280;27787;44.594;11.046;2022-12-18T08:40:21;102787.88;;;6.83;76.51
42125;BME280;27787;44.594;11.046;2022-12-18T08:43:08;102789.50;;;6.80;77.03
42125;BME280;27787;44.594;11.046;2022-12-18T08:46:12;102796.56;;;6.82;77.09
42125;BME280;27787;44.594;11.046;2022-12-18T08:48:59;102796.41;;;6.78;76.55
42125;BME280;27787;44.594;11.046;2022-12-18T08:51:44;102803.03;;;6.72;78.28
42125;BME280;27787;44.594;11.046;2022-12-18T08:54:28;102824.09;;;6.73;79.10
42125;BME280;27787;44.594;11.046;2022-12-18T08:57:13;102818.84;;;6.73;77.75
42125;BME280;27787;44.594;11.046;2022-12-18T08:59:57;102816.38;;;6.76;79.43
42125;BME280;27787;44.594;11.046;2022-12-18T09:02:42;102819.91;;;6.77;80.18
42125;BME280;27787;44.594;11.046;2022-12-18T09:05:26;102830.78;;;6.83;78.52
42125;BME280;27787;44.594;11.046;2022-12-18T09:08:10;102829.06;;;6.84;76.76
42125;BME280;27787;44.594;11.046;2022-12-18T09:10:55;102830.69;;;6.82;76.42
42125;BME280;27787;44.594;11.046;2022-12-18T09:13:39;102833.31;;;6.82;74.05
42125;BME280;27787;44.594;11.046;2022-12-18T09:16:25;102829.72;;;6.79;73.91
42125;BME280;27787;44.594;11.046;2022-12-18T09:19:09;102831.50;;;6.80;72.76
42125;BME280;27787;44.594;11.046;2022-12-18T09:21:53;102834.38;;;6.85;72.41
42125;BME280;27787;44.594;11.046;2022-12-18T09:24:37;102828.59;;;6.91;67.52
42125;BME280;27787;44.594;11.046;2022-12-18T09:27:22;102840.31;;;6.97;67.92
42125;BME280;27787;44.594;11.046;2022-12-18T09:30:06;102839.03;;;7.05;65.64
42125;BME280;27787;44.594;11.046;2022-12-18T09:32:51;102839.19;;;7.08;65.54
42125;BME280;27787;44.594;11.046;2022-12-18T09:35:39;102842.06;;;7.13;65.89
42125;BME280;27787;44.594;11.046;2022-12-18T09:38:24;102837.06;;;7.18;66.31
42125;BME280;27787;44.594;11.046;2022-12-18T09:41:43;102835.59;;;7.23;67.28
42125;BME280;27787;44.594;11.046;2022-12-18T09:44:32;102828.03;;;7.29;68.25
42125;BME280;27787;44.594;11.046;2022-12-18T09:47:23;102836.69;;;7.43;68.16
42125;BME280;27787;44.594;11.046;2022-12-18T09:50:28;102832.56;;;7.48;69.57
42125;BME280;27787;44.594;11.046;2022-12-18T09:53:24;102832.03;;;7.55;70.25
42125;BME280;27787;44.594;11.046;2022-12-18T09:56:14;102831.56;;;7.62;69.89
42125;BME280;27787;44.594;11.046;2022-12-18T09:59:01;102824.31;;;7.74;70.27
42125;BME280;27787;44.594;11.046;2022-12-18T10:01:45;102816.34;;;7.73;70.53
42125;BME280;27787;44.594;11.046;2022-12-18T10:04:31;102809.47;;;7.58;71.44
42125;BME280;27787;44.594;11.046;2022-12-18T10:07:20;102811.00;;;7.55;71.57
42125;BME280;27787;44.594;11.046;2022-12-18T10:11:01;102810.47;;;7.44;72.00
42125;BME280;27787;44.594;11.046;2022-12-18T10:16:21;102816.38;;;7.40;71.76
42125;BME280;27787;44.594;11.046;2022-12-18T10:19:23;102806.84;;;7.42;71.46
42125;BME280;27787;44.594;11.046;2022-12-18T10:22:18;102807.94;;;7.46;71.66
42125;BME280;27787;44.594;11.046;2022-12-18T10:27:54;102801.50;;;7.57;71.40
42125;BME280;27787;44.594;11.046;2022-12-18T10:30:41;102800.84;;;7.61;71.16
42125;BME280;27787;44.594;11.046;2022-12-18T10:33:29;102803.47;;;7.61;71.55
42125;BME280;27787;44.594;11.046;2022-12-18T10:36:14;102798.38;;;7.64;71.86
42125;BME280;27787;44.594;11.046;2022-12-18T10:39:32;102803.78;;;7.67;71.51
42125;BME280;27787;44.594;11.046;2022-12-18T10:42:18;102796.41;;;7.60;71.36
42125;BME280;27787;44.594;11.046;2022-12-18T10:45:15;102783.28;;;7.60;71.99
42125;BME280;27787;44.594;11.046;2022-12-18T10:47:59;102779.66;;;7.58;71.49
42125;BME280;27787;44.594;11.046;2022-12-18T10:50:47;102790.41;;;7.62;71.70
42125;BME280;27787;44.594;11.046;2022-12-18T10:53:34;102794.09;;;7.66;71.36
42125;BME280;27787;44.594;11.046;2022-12-18T10:56:20;102792.09;;;7.78;71.17
42125;BME280;27787;44.594;11.046;2022-12-18T10:59:06;102791.59;;;7.85;70.57
42125;BME280;27787;44.594;11.046;2022-12-18T11:01:52;102795.28;;;7.89;70.24
42125;BME280;27787;44.594;11.046;2022-12-18T11:04:50;102798.81;;;7.89;70.42
42125;BME280;27787;44.594;11.046;2022-12-18T11:07:48;102798.88;;;7.91;70.59
42125;BME280;27787;44.594;11.046;2022-12-18T11:10:36;102799.13;;;7.95;71.06
42125;BME280;27787;44.594;11.046;2022-12-18T11:13:23;102797.69;;;8.02;71.82
42125;BME280;27787;44.594;11.046;2022-12-18T11:16:18;102794.63;;;8.11;70.27
42125;BME280;27787;44.594;11.046;2022-12-18T11:22:36;102798.78;;;8.23;69.17
42125;BME280;27787;44.594;11.046;2022-12-18T11:25:22;102793.72;;;8.28;70.19
42125;BME280;27787;44.594;11.046;2022-12-18T11:31:23;102810.44;;;8.28;69.35
42125;BME280;27787;44.594;11.046;2022-12-18T11:34:14;102800.34;;;8.20;69.40
42125;BME280;27787;44.594;11.046;2022-12-18T11:37:02;102805.59;;;8.20;69.83
42125;BME280;27787;44.594;11.046;2022-12-18T11:39:54;102796.91;;;8.21;68.75
42125;BME280;27787;44.594;11.046;2022-12-18T11:42:56;102786.97;;;8.15;69.53
42125;BME280;27787;44.594;11.046;2022-12-18T11:45:59;102795.00;;;8.18;68.72
42125;BME280;27787;44.594;11.046;2022-12-18T11:48:49;102797.63;;;8.18;68.52
42125;BME280;27787;44.594;11.046;2022-12-18T11:51:42;102800.34;;;8.20;68.62
42125;BME280;27787;44.594;11.046;2022-12-18T11:54:27;102793.88;;;8.31;66.51
42125;BME280;27787;44.594;11.046;2022-12-18T12:00:26;102780.03;;;8.17;67.63
42125;BME280;27787;44.594;11.046;2022-12-18T12:09:14;102756.53;;;8.20;67.09
42125;BME280;27787;44.594;11.046;2022-12-18T12:12:20;102765.16;;;8.18;67.40
42125;BME280;27787;44.594;11.046;2022-12-18T12:15:21;102758.56;;;8.26;67.79
42125;BME280;27787;44.594;11.046;2022-12-18T12:21:48;102761.56;;;8.34;67.39
42125;BME280;27787;44.594;11.046;2022-12-18T12:33:42;102765.63;;;8.45;68.26
42125;BME280;27787;44.594;11.046;2022-12-18T12:37:51;102770.00;;;8.44;68.40
42125;BME280;27787;44.594;11.046;2022-12-18T12:40:04;102761.75;;;8.37;68.93
42125;BME280;27787;44.594;11.046;2022-12-18T12:43:45;102772.50;;;8.41;69.56
42125;BME280;27787;44.594;11.046;2022-12-18T12:46:05;102771.00;;;8.46;68.94
42125;BME280;27787;44.594;11.046;2022-12-18T12:48:54;102770.66;;;8.58;69.11
42125;BME280;27787;44.594;11.046;2022-12-18T12:51:42;102766.84;;;8.51;69.03
42125;BME280;27787;44.594;11.046;2022-12-18T12:54:28;102769.56;;;8.53;69.34
42125;BME280;27787;44.594;11.046;2022-12-18T12:57:29;102775.84;;;8.56;69.57
42125;BME280;27787;44.594;11.046;2022-12-18T13:00:16;102775.84;;;8.56;69.90
42125;BME280;27787;44.594;11.046;2022-12-18T13:03:13;102768.47;;;8.67;69.31
42125;BME280;27787;44.594;11.046;2022-12-18T13:06:12;102771.88;;;8.65;69.62
42125;BME280;27787;44.594;11.046;2022-12-18T13:09:01;102774.56;;;8.66;69.96
42125;BME280;27787;44.594;11.046;2022-12-18T13:11:46;102763.13;;;8.66;70.37
42125;BME280;27787;44.594;11.046;2022-12-18T13:14:49;102772.91;;;8.68;71.43
42125;BME280;27787;44.594;11.046;2022-12-18T13:17:34;102757.19;;;8.70;71.06
42125;BME280;27787;44.594;11.046;2022-12-18T13:20:18;102760.03;;;8.74;72.12
42125;BME280;27787;44.594;11.046;2022-12-18T13:28:54;102765.91;;;8.69;73.01
42125;BME280;27787;44.594;11.046;2022-12-18T13:32:01;102768.91;;;8.76;73.40
42125;BME280;27787;44.594;11.046;2022-12-18T13:34:45;102763.50;;;8.73;74.14
42125;BME280;27787;44.594;11.046;2022-12-18T13:49:03;102757.09;;;8.49;74.90
42125;BME280;27787;44.594;11.046;2022-12-18T13:51:51;102758.41;;;8.58;73.62
42125;BME280;27787;44.594;11.046;2022-12-18T13:54:39;102764.28;;;8.53;74.17
42125;BME280;27787;44.594;11.046;2022-12-18T14:00:24;102759.66;;;8.47;74.31
42125;BME280;27787;44.594;11.046;2022-12-18T14:03:21;102757.00;;;8.47;74.90
42125;BME280;27787;44.594;11.046;2022-12-18T14:06:06;102749.13;;;8.47;75.24
42125;BME280;27787;44.594;11.046;2022-12-18T14:08:52;102758.31;;;8.57;74.34
42125;BME280;27787;44.594;11.046;2022-12-18T14:11:37;102760.97;;;8.57;73.98
42125;BME280;27787;44.594;11.046;2022-12-18T14:14:21;102760.81;;;8.54;74.03
42125;BME280;27787;44.594;11.046;2022-12-18T14:17:09;102771.50;;;8.57;73.83
42125;BME280;27787;44.594;11.046;2022-12-18T14:19:54;102762.03;;;8.61;73.23
42125;BME280;27787;44.594;11.046;2022-12-18T14:22:43;102769.03;;;8.60;73.89
42125;BME280;27787;44.594;11.046;2022-12-18T14:25:29;102770.84;;;8.61;73.37
42125;BME280;27787;44.594;11.046;2022-12-18T14:28:14;102773.28;;;8.58;73.15
42125;BME280;27787;44.594;11.046;2022-12-18T14:30:59;102780.22;;;8.56;73.76
42125;BME280;27787;44.594;11.046;2022-12-18T14:33:43;102772.19;;;8.53;74.05
42125;BME280;27787;44.594;11.046;2022-12-18T14:36:28;102779.19;;;8.52;73.34
42125;BME280;27787;44.594;11.046;2022-12-18T14:39:17;102771.22;;;8.51;73.92
42125;BME280;27787;44.594;11.046;2022-12-18T14:42:01;102768.59;;;8.51;74.52
42125;BME280;27787;44.594;11.046;2022-12-18T14:44:46;102772.81;;;8.47;74.56
42125;BME280;27787;44.594;11.046;2022-12-18T14:47:30;102775.25;;;8.44;73.53
42125;BME280;27787;44.594;11.046;2022-12-18T14:50:15;102773.19;;;8.37;73.97
42125;BME280;27787;44.594;11.046;2022-12-18T14:52:59;102771.16;;;8.33;74.28
42125;BME280;27787;44.594;11.046;2022-12-18T14:55:47;102776.22;;;8.28;74.50
42125;BME280;27787;44.594;11.046;2022-12-18T14:58:32;102769.97;;;8.26;74.65
42125;BME280;27787;44.594;11.046;2022-12-18T15:01:34;102778.72;;;8.25;74.95
42125;BME280;27787;44.594;11.046;2022-12-18T15:04:29;102775.47;;;8.31;75.13
42125;BME280;27787;44.594;11.046;2022-12-18T15:07:17;102778.03;;;8.29;74.96
42125;BME280;27787;44.594;11.046;2022-12-18T15:15:45;102785.91;;;8.12;76.33
42125;BME280;27787;44.594;11.046;2022-12-18T15:18:33;102779.69;;;8.10;76.55
42125;BME280;27787;44.594;11.046;2022-12-18T15:21:20;102782.97;;;8.06;77.20
42125;BME280;27787;44.594;11.046;2022-12-18T15:24:13;102780.03;;;7.99;77.94
42125;BME280;27787;44.594;11.046;2022-12-18T15:27:00;102784.19;;;7.94;78.32
42125;BME280;27787;44.594;11.046;2022-12-18T15:30:03;102780.41;;;7.89;78.92
42125;BME280;27787;44.594;11.046;2022-12-18T15:33:25;102788.06;;;7.85;79.26
42125;BME280;27787;44.594;11.046;2022-12-18T15:36:12;102794.06;;;7.82;79.59
42125;BME280;27787;44.594;11.046;2022-12-18T15:38:58;102795.47;;;7.76;80.03
42125;BME280;27787;44.594;11.046;2022-12-18T15:41:42;102803.97;;;7.70;80.26
42125;BME280;27787;44.594;11.046;2022-12-18T15:44:46;102807.31;;;7.67;80.67
42125;BME280;27787;44.594;11.046;2022-12-18T15:47:31;102809.69;;;7.63;81.01
42125;BME280;27787;44.594;11.046;2022-12-18T15:50:16;102819.16;;;7.59;81.34
42125;BME280;27787;44.594;11.046;2022-12-18T15:53:00;102821.63;;;7.56;81.42
42125;BME280;27787;44.594;11.046;2022-12-18T15:55:44;102817.91;;;7.53;81.32
42125;BME280;27787;44.594;11.046;2022-12-18T15:58:48;102815.00;;;7.47;81.26
42125;BME280;27787;44.594;11.046;2022-12-18T16:01:33;102823.53;;;7.43;81.46
42125;BME280;27787;44.594;11.046;2022-12-18T16:04:18;102831.22;;;7.39;81.69
42125;BME280;27787;44.594;11.046;2022-12-18T16:07:07;102827.47;;;7.34;82.07
42125;BME280;27787;44.594;11.046;2022-12-18T16:09:51;102825.41;;;7.29;82.72